sensor_id;sensor_type;location;lat;lon;timestamp;pressure;altitude;pressure_sealevel;temperature;humidity
83815;BME280;73829;53.826;-3.034;2023-12-20T00:00:26;101631.52;;;17.53;52.19
83815;BME280;73829;53.826;-3.034;2023-12-20T00:03:16;101633.34;;;17.52;52.26
83815;BME280;73829;53.826;-3.034;2023-12-20T00:05:48;101638.79;;;17.52;52.22
83815;BME280;73829;53.826;-3.034;2023-12-20T00:08:19;101630.36;;;17.51;52.05
83815;BME280;73829;53.826;-3.034;2023-12-20T00:10:50;101627.55;;;17.51;52.05
83815;BME280;73829;53.826;-3.034;2023-12-20T00:13:21;101631.64;;;17.50;51.84
83815;BME280;73829;53.826;-3.034;2023-12-20T00:15:52;101628.14;;;17.49;52.20
83815;BME280;73829;53.826;-3.034;2023-12-20T00:18:24;101633.08;;;17.48;52.02
83815;BME280;73829;53.826;-3.034;2023-12-20T00:20:55;101637.14;;;17.48;52.22
83815;BME280;73829;53.826;-3.034;2023-12-20T00:23:26;101643.33;;;17.46;51.91
83815;BME280;73829;53.826;-3.034;2023-12-20T00:25:57;101634.02;;;17.46;52.12
83815;BME280;73829;53.826;-3.034;2023-12-20T00:28:28;101633.34;;;17.45;52.03
83815;BME280;73829;53.826;-3.034;2023-12-20T00:30:59;101629.84;;;17.45;52.14
83815;BME280;73829;53.826;-3.034;2023-12-20T00:33:30;101623.36;;;17.44;51.83
83815;BME280;73829;53.826;-3.034;2023-12-20T00:36:01;101624.95;;;17.43;51.97
83815;BME280;73829;53.826;-3.034;2023-12-20T00:38:32;101621.28;;;17.42;51.96
83815;BME280;73829;53.826;-3.034;2023-12-20T00:41:04;101617.60;;;17.42;51.88
83815;BME280;73829;53.826;-3.034;2023-12-20T00:43:35;101618.86;;;17.41;51.91
83815;BME280;73829;53.826;-3.034;2023-12-20T00:46:06;101611.84;;;17.40;52.05
83815;BME280;73829;53.826;-3.034;2023-12-20T00:48:37;101608.54;;;17.39;51.84
83815;BME280;73829;53.826;-3.034;2023-12-20T00:51:08;101596.59;;;17.38;51.80
83815;BME280;73829;53.826;-3.034;2023-12-20T00:53:39;101588.87;;;17.37;51.88
83815;BME280;73829;53.826;-3.034;2023-12-20T00:56:10;101584.13;;;17.37;51.64
83815;BME280;73829;53.826;-3.034;2023-12-20T00:58:41;101586.11;;;17.36;51.86
83815;BME280;73829;53.826;-3.034;2023-12-20T01:01:12;101584.01;;;17.35;51.88
83815;BME280;73829;53.826;-3.034;2023-12-20T01:03:43;101592.11;;;17.35;51.88
83815;BME280;73829;53.826;-3.034;2023-12-20T01:06:14;101583.86;;;17.34;51.72
83815;BME280;73829;53.826;-3.034;2023-12-20T01:08:45;101578.64;;;17.33;51.85
83815;BME280;73829;53.826;-3.034;2023-12-20T01:11:16;101576.36;;;17.32;51.91
83815;BME280;73829;53.826;-3.034;2023-12-20T01:13:47;101571.63;;;17.31;51.81
83815;BME280;73829;53.826;-3.034;2023-12-20T01:16:18;101570.41;;;17.31;51.88
83815;BME280;73829;53.826;-3.034;2023-12-20T01:18:49;101555.86;;;17.29;51.77
83815;BME280;73829;53.826;-3.034;2023-12-20T01:21:18;101554.65;;;17.29;51.75
83815;BME280;73829;53.826;-3.034;2023-12-20T01:23:49;101552.85;;;17.30;51.77
83815;BME280;73829;53.826;-3.034;2023-12-20T01:26:18;101552.73;;;17.28;51.97
83815;BME280;73829;53.826;-3.034;2023-12-20T01:28:49;101559.39;;;17.29;51.81
83815;BME280;73829;53.826;-3.034;2023-12-20T01:31:20;101566.83;;;17.27;51.82
83815;BME280;73829;53.826;-3.034;2023-12-20T01:33:51;101570.05;;;17.25;51.80
83815;BME280;73829;53.826;-3.034;2023-12-20T01:36:20;101568.52;;;17.23;51.82
83815;BME280;73829;53.826;-3.034;2023-12-20T01:38:51;101564.08;;;17.25;51.78
83815;BME280;73829;53.826;-3.034;2023-12-20T01:41:22;101562.59;;;17.22;51.93
83815;BME280;73829;53.826;-3.034;2023-12-20T01:43:52;101562.42;;;17.21;51.88
83815;BME280;73829;53.826;-3.034;2023-12-20T01:46:23;101568.21;;;17.22;51.88
83815;BME280;73829;53.826;-3.034;2023-12-20T01:48:54;101569.50;;;17.20;51.74
83815;BME280;73829;53.826;-3.034;2023-12-20T01:51:25;101572.52;;;17.19;52.05
83815;BME280;73829;53.826;-3.034;2023-12-20T01:53:58;101573.08;;;17.18;52.01
83815;BME280;73829;53.826;-3.034;2023-12-20T01:56:30;101576.45;;;17.17;51.99
83815;BME280;73829;53.826;-3.034;2023-12-20T01:59:02;101574.88;;;17.16;52.00
83815;BME280;73829;53.826;-3.034;2023-12-20T02:01:33;101581.74;;;17.16;51.98
83815;BME280;73829;53.826;-3.034;2023-12-20T02:04:05;101581.06;;;17.14;51.99
83815;BME280;73829;53.826;-3.034;2023-12-20T02:06:36;101579.67;;;17.14;51.95
83815;BME280;73829;53.826;-3.034;2023-12-20T02:09:10;101578.45;;;17.13;52.07
83815;BME280;73829;53.826;-3.034;2023-12-20T02:11:41;101580.23;;;17.13;52.15
83815;BME280;73829;53.826;-3.034;2023-12-20T02:14:13;101582.55;;;17.12;51.92
83815;BME280;73829;53.826;-3.034;2023-12-20T02:16:44;101573.94;;;17.12;52.03
83815;BME280;73829;53.826;-3.034;2023-12-20T02:19:15;101565.70;;;17.11;52.05
83815;BME280;73829;53.826;-3.034;2023-12-20T02:21:48;101562.17;;;17.11;52.00
83815;BME280;73829;53.826;-3.034;2023-12-20T02:24:17;101556.73;;;17.10;51.98
83815;BME280;73829;53.826;-3.034;2023-12-20T02:26:48;101565.85;;;17.12;51.95
83815;BME280;73829;53.826;-3.034;2023-12-20T02:29:19;101565.55;;;17.10;52.00
83815;BME280;73829;53.826;-3.034;2023-12-20T02:31:50;101561.52;;;17.09;52.06
83815;BME280;73829;53.826;-3.034;2023-12-20T02:34:21;101565.77;;;17.08;51.98
83815;BME280;73829;53.826;-3.034;2023-12-20T02:36:50;101568.59;;;17.07;51.98
83815;BME280;73829;53.826;-3.034;2023-12-20T02:39:21;101569.98;;;17.08;52.09
83815;BME280;73829;53.826;-3.034;2023-12-20T02:41:53;101568.09;;;17.07;52.08
83815;BME280;73829;53.826;-3.034;2023-12-20T02:44:22;101565.67;;;17.06;52.02
83815;BME280;73829;53.826;-3.034;2023-12-20T02:46:53;101573.39;;;17.06;52.03
83815;BME280;73829;53.826;-3.034;2023-12-20T02:49:24;101570.79;;;17.04;52.08
83815;BME280;73829;53.826;-3.034;2023-12-20T02:51:55;101572.75;;;17.04;52.09
83815;BME280;73829;53.826;-3.034;2023-12-20T02:54:26;101561.88;;;17.02;52.01
83815;BME280;73829;53.826;-3.034;2023-12-20T02:56:55;101569.64;;;17.01;52.12
83815;BME280;73829;53.826;-3.034;2023-12-20T02:59:26;101569.61;;;17.03;52.04
83815;BME280;73829;53.826;-3.034;2023-12-20T03:01:55;101569.47;;;17.01;51.90
83815;BME280;73829;53.826;-3.034;2023-12-20T03:04:26;101571.92;;;17.01;52.08
83815;BME280;73829;53.826;-3.034;2023-12-20T03:06:57;101568.45;;;16.99;52.17
83815;BME280;73829;53.826;-3.034;2023-12-20T03:09:26;101572.36;;;16.99;52.18
83815;BME280;73829;53.826;-3.034;2023-12-20T03:11:57;101572.00;;;16.99;52.02
83815;BME280;73829;53.826;-3.034;2023-12-20T03:14:28;101574.84;;;16.97;52.17
83815;BME280;73829;53.826;-3.034;2023-12-20T03:16:59;101579.27;;;16.96;52.12
83815;BME280;73829;53.826;-3.034;2023-12-20T03:19:30;101580.34;;;16.96;52.22
83815;BME280;73829;53.826;-3.034;2023-12-20T03:22:01;101571.05;;;16.95;52.12
83815;BME280;73829;53.826;-3.034;2023-12-20T03:24:32;101561.39;;;16.94;52.17
83815;BME280;73829;53.826;-3.034;2023-12-20T03:27:03;101555.08;;;16.94;52.16
83815;BME280;73829;53.826;-3.034;2023-12-20T03:29:34;101551.23;;;16.93;52.18
83815;BME280;73829;53.826;-3.034;2023-12-20T03:32:06;101557.73;;;16.93;52.03
83815;BME280;73829;53.826;-3.034;2023-12-20T03:34:38;101552.30;;;16.93;52.19
83815;BME280;73829;53.826;-3.034;2023-12-20T03:37:09;101542.48;;;16.92;52.02
83815;BME280;73829;53.826;-3.034;2023-12-20T03:39:40;101544.06;;;16.91;52.10
83815;BME280;73829;53.826;-3.034;2023-12-20T03:42:11;101537.21;;;16.91;52.11
83815;BME280;73829;53.826;-3.034;2023-12-20T03:44:42;101536.39;;;16.89;52.01
83815;BME280;73829;53.826;-3.034;2023-12-20T03:47:13;101538.30;;;16.90;52.13
83815;BME280;73829;53.826;-3.034;2023-12-20T03:49:42;101543.42;;;16.89;52.03
83815;BME280;73829;53.826;-3.034;2023-12-20T03:52:13;101547.23;;;16.91;52.06
83815;BME280;73829;53.826;-3.034;2023-12-20T03:54:45;101535.52;;;16.89;52.12
83815;BME280;73829;53.826;-3.034;2023-12-20T03:57:16;101532.55;;;16.88;52.12
83815;BME280;73829;53.826;-3.034;2023-12-20T03:59:47;101525.71;;;16.88;52.19
83815;BME280;73829;53.826;-3.034;2023-12-20T04:02:18;101520.98;;;16.87;52.16
83815;BME280;73829;53.826;-3.034;2023-12-20T04:04:49;101528.05;;;16.86;52.10
83815;BME280;73829;53.826;-3.034;2023-12-20T04:07:22;101529.65;;;16.86;52.03
83815;BME280;73829;53.826;-3.034;2023-12-20T04:09:51;101530.17;;;16.85;52.06
83815;BME280;73829;53.826;-3.034;2023-12-20T04:12:22;101535.79;;;16.86;52.04
83815;BME280;73829;53.826;-3.034;2023-12-20T04:14:53;101530.22;;;16.83;52.09
83815;BME280;73829;53.826;-3.034;2023-12-20T04:17:22;101540.04;;;16.84;52.14
83815;BME280;73829;53.826;-3.034;2023-12-20T04:19:53;101544.96;;;16.84;51.90
83815;BME280;73829;53.826;-3.034;2023-12-20T04:22:23;101536.58;;;16.82;51.87
83815;BME280;73829;53.826;-3.034;2023-12-20T04:24:54;101540.60;;;16.83;51.91
83815;BME280;73829;53.826;-3.034;2023-12-20T04:27:24;101536.60;;;16.81;52.08
83815;BME280;73829;53.826;-3.034;2023-12-20T04:29:56;101536.46;;;16.80;52.06
83815;BME280;73829;53.826;-3.034;2023-12-20T04:32:25;101532.46;;;16.78;52.09
83815;BME280;73829;53.826;-3.034;2023-12-20T04:34:56;101529.10;;;16.80;51.93
83815;BME280;73829;53.826;-3.034;2023-12-20T04:37:27;101530.01;;;16.79;52.01
83815;BME280;73829;53.826;-3.034;2023-12-20T04:39:58;101517.04;;;16.77;52.21
83815;BME280;73829;53.826;-3.034;2023-12-20T04:42:28;101521.45;;;16.77;52.22
83815;BME280;73829;53.826;-3.034;2023-12-20T04:44:58;101518.48;;;16.75;52.10
83815;BME280;73829;53.826;-3.034;2023-12-20T04:47:29;101523.20;;;16.77;51.97
83815;BME280;73829;53.826;-3.034;2023-12-20T04:49:59;101517.44;;;16.75;52.10
83815;BME280;73829;53.826;-3.034;2023-12-20T04:52:31;101525.36;;;16.74;52.08
83815;BME280;73829;53.826;-3.034;2023-12-20T04:55:02;101529.22;;;16.74;52.14
83815;BME280;73829;53.826;-3.034;2023-12-20T04:57:33;101525.04;;;16.73;52.14
83815;BME280;73829;53.826;-3.034;2023-12-20T05:00:06;101524.87;;;16.73;52.08
83815;BME280;73829;53.826;-3.034;2023-12-20T05:02:38;101525.05;;;16.72;52.07
83815;BME280;73829;53.826;-3.034;2023-12-20T05:05:09;101523.66;;;16.72;52.11
83815;BME280;73829;53.826;-3.034;2023-12-20T05:07:40;101522.26;;;16.71;52.14
83815;BME280;73829;53.826;-3.034;2023-12-20T05:10:10;101521.04;;;16.71;52.32
83815;BME280;73829;53.826;-3.034;2023-12-20T05:12:41;101524.70;;;16.72;52.07
83815;BME280;73829;53.826;-3.034;2023-12-20T05:15:12;101517.21;;;16.70;52.07
83815;BME280;73829;53.826;-3.034;2023-12-20T05:17:43;101524.23;;;16.70;52.21
83815;BME280;73829;53.826;-3.034;2023-12-20T05:20:14;101524.60;;;16.69;52.26
83815;BME280;73829;53.826;-3.034;2023-12-20T05:22:45;101532.19;;;16.67;52.11
83815;BME280;73829;53.826;-3.034;2023-12-20T05:25:16;101526.42;;;16.66;52.12
83815;BME280;73829;53.826;-3.034;2023-12-20T05:27:48;101521.15;;;16.66;52.09
83815;BME280;73829;53.826;-3.034;2023-12-20T05:30:19;101517.46;;;16.66;52.18
83815;BME280;73829;53.826;-3.034;2023-12-20T05:32:48;101509.77;;;16.65;52.11
83815;BME280;73829;53.826;-3.034;2023-12-20T05:35:19;101501.08;;;16.67;52.12
83815;BME280;73829;53.826;-3.034;2023-12-20T05:37:51;101493.42;;;16.65;52.18
83815;BME280;73829;53.826;-3.034;2023-12-20T05:40:22;101496.96;;;16.64;52.21
83815;BME280;73829;53.826;-3.034;2023-12-20T05:42:52;101491.00;;;16.64;52.22
83815;BME280;73829;53.826;-3.034;2023-12-20T05:45:23;101480.77;;;16.65;52.13
83815;BME280;73829;53.826;-3.034;2023-12-20T05:47:52;101481.90;;;16.63;52.13
83815;BME280;73829;53.826;-3.034;2023-12-20T05:50:23;101485.39;;;16.63;52.02
83815;BME280;73829;53.826;-3.034;2023-12-20T05:52:54;101481.92;;;16.62;52.17
83815;BME280;73829;53.826;-3.034;2023-12-20T05:55:24;101498.98;;;16.61;52.02
83815;BME280;73829;53.826;-3.034;2023-12-20T05:57:54;101510.02;;;16.62;52.00
83815;BME280;73829;53.826;-3.034;2023-12-20T06:00:24;101496.02;;;16.60;52.21
83815;BME280;73829;53.826;-3.034;2023-12-20T06:02:55;101474.94;;;16.60;52.14
83815;BME280;73829;53.826;-3.034;2023-12-20T06:05:24;101476.21;;;16.59;52.19
83815;BME280;73829;53.826;-3.034;2023-12-20T06:07:55;101471.45;;;16.59;52.15
83815;BME280;73829;53.826;-3.034;2023-12-20T06:10:27;101475.89;;;16.57;52.09
83815;BME280;73829;53.826;-3.034;2023-12-20T06:12:58;101478.58;;;16.56;52.08
83815;BME280;73829;53.826;-3.034;2023-12-20T06:15:30;101484.91;;;16.55;52.17
83815;BME280;73829;53.826;-3.034;2023-12-20T06:17:59;101482.11;;;16.54;52.19
83815;BME280;73829;53.826;-3.034;2023-12-20T06:20:30;101483.31;;;16.55;52.07
83815;BME280;73829;53.826;-3.034;2023-12-20T06:23:01;101485.84;;;16.53;52.07
83815;BME280;73829;53.826;-3.034;2023-12-20T06:25:32;101489.71;;;16.52;52.19
83815;BME280;73829;53.826;-3.034;2023-12-20T06:28:04;101496.40;;;16.52;52.20
83815;BME280;73829;53.826;-3.034;2023-12-20T06:30:36;101504.65;;;16.52;52.18
83815;BME280;73829;53.826;-3.034;2023-12-20T06:33:07;101519.61;;;16.51;52.17
83815;BME280;73829;53.826;-3.034;2023-12-20T06:35:39;101509.96;;;16.51;52.05
83815;BME280;73829;53.826;-3.034;2023-12-20T06:38:10;101505.40;;;16.51;52.12
83815;BME280;73829;53.826;-3.034;2023-12-20T06:40:41;101512.09;;;16.50;52.26
83815;BME280;73829;53.826;-3.034;2023-12-20T06:43:13;101510.16;;;16.50;52.27
83815;BME280;73829;53.826;-3.034;2023-12-20T06:45:44;101518.44;;;16.49;52.06
83815;BME280;73829;53.826;-3.034;2023-12-20T06:48:13;101524.92;;;16.50;52.20
83815;BME280;73829;53.826;-3.034;2023-12-20T06:50:44;101525.61;;;16.50;52.12
83815;BME280;73829;53.826;-3.034;2023-12-20T06:53:15;101520.89;;;16.49;52.09
83815;BME280;73829;53.826;-3.034;2023-12-20T06:55:46;101521.95;;;16.49;52.22
83815;BME280;73829;53.826;-3.034;2023-12-20T06:58:15;101525.50;;;16.48;52.13
83815;BME280;73829;53.826;-3.034;2023-12-20T07:00:46;101518.80;;;16.49;52.16
83815;BME280;73829;53.826;-3.034;2023-12-20T07:03:17;101521.65;;;16.47;52.22
83815;BME280;73829;53.826;-3.034;2023-12-20T07:05:48;101524.84;;;16.46;52.26
83815;BME280;73829;53.826;-3.034;2023-12-20T07:08:19;101530.98;;;16.46;52.27
83815;BME280;73829;53.826;-3.034;2023-12-20T07:10:48;101537.16;;;16.45;52.12
83815;BME280;73829;53.826;-3.034;2023-12-20T07:13:19;101526.41;;;16.46;52.12
83815;BME280;73829;53.826;-3.034;2023-12-20T07:15:51;101518.72;;;16.45;52.27
83815;BME280;73829;53.826;-3.034;2023-12-20T07:18:20;101507.69;;;16.44;52.33
83815;BME280;73829;53.826;-3.034;2023-12-20T07:20:51;101506.95;;;16.45;52.19
83815;BME280;73829;53.826;-3.034;2023-12-20T07:23:23;101501.02;;;16.43;52.22
83815;BME280;73829;53.826;-3.034;2023-12-20T07:25:56;101493.34;;;16.42;52.24
83815;BME280;73829;53.826;-3.034;2023-12-20T07:28:26;101497.36;;;16.42;52.20
83815;BME280;73829;53.826;-3.034;2023-12-20T07:30:56;101501.77;;;16.42;52.14
83815;BME280;73829;53.826;-3.034;2023-12-20T07:33:27;101499.28;;;16.43;52.18
83815;BME280;73829;53.826;-3.034;2023-12-20T07:35:56;101500.18;;;16.41;52.33
83815;BME280;73829;53.826;-3.034;2023-12-20T07:38:27;101496.30;;;16.42;52.09
83815;BME280;73829;53.826;-3.034;2023-12-20T07:40:57;101499.14;;;16.41;52.22
83815;BME280;73829;53.826;-3.034;2023-12-20T07:43:28;101493.26;;;16.38;52.28
83815;BME280;73829;53.826;-3.034;2023-12-20T07:46:01;101498.66;;;16.39;52.18
83815;BME280;73829;53.826;-3.034;2023-12-20T07:48:34;101495.98;;;16.40;52.17
83815;BME280;73829;53.826;-3.034;2023-12-20T07:51:06;101490.94;;;16.39;52.57
83815;BME280;73829;53.826;-3.034;2023-12-20T07:53:39;101491.33;;;16.38;52.67
83815;BME280;73829;53.826;-3.034;2023-12-20T07:56:17;101493.63;;;16.37;52.70
83815;BME280;73829;53.826;-3.034;2023-12-20T07:58:48;101498.86;;;16.38;52.70
83815;BME280;73829;53.826;-3.034;2023-12-20T08:01:19;101498.74;;;16.36;52.61
83815;BME280;73829;53.826;-3.034;2023-12-20T08:03:51;101494.54;;;16.36;52.66
83815;BME280;73829;53.826;-3.034;2023-12-20T08:06:22;101494.55;;;16.36;52.82
83815;BME280;73829;53.826;-3.034;2023-12-20T08:08:53;101489.27;;;16.36;52.89
83815;BME280;73829;53.826;-3.034;2023-12-20T08:11:23;101491.17;;;16.37;52.95
83815;BME280;73829;53.826;-3.034;2023-12-20T08:13:54;101484.27;;;16.39;53.03
83815;BME280;73829;53.826;-3.034;2023-12-20T08:16:24;101494.45;;;16.39;53.07
83815;BME280;73829;53.826;-3.034;2023-12-20T08:18:54;101492.36;;;16.38;53.23
83815;BME280;73829;53.826;-3.034;2023-12-20T08:21:25;101491.80;;;16.40;53.11
83815;BME280;73829;53.826;-3.034;2023-12-20T08:23:56;101487.42;;;16.39;53.31
83815;BME280;73829;53.826;-3.034;2023-12-20T08:26:25;101484.27;;;16.39;53.36
83815;BME280;73829;53.826;-3.034;2023-12-20T08:28:56;101483.22;;;16.39;53.28
83815;BME280;73829;53.826;-3.034;2023-12-20T08:31:27;101482.68;;;16.39;53.45
83815;BME280;73829;53.826;-3.034;2023-12-20T08:33:58;101485.71;;;16.38;53.49
83815;BME280;73829;53.826;-3.034;2023-12-20T08:36:27;101480.94;;;16.39;53.46
83815;BME280;73829;53.826;-3.034;2023-12-20T08:38:58;101479.85;;;16.40;53.42
83815;BME280;73829;53.826;-3.034;2023-12-20T08:41:30;101481.06;;;16.40;53.60
83815;BME280;73829;53.826;-3.034;2023-12-20T08:44:01;101480.34;;;16.41;53.60
83815;BME280;73829;53.826;-3.034;2023-12-20T08:46:33;101472.95;;;16.42;53.72
83815;BME280;73829;53.826;-3.034;2023-12-20T08:49:04;101465.15;;;16.45;53.57
83815;BME280;73829;53.826;-3.034;2023-12-20T08:51:33;101461.93;;;16.47;53.47
83815;BME280;73829;53.826;-3.034;2023-12-20T08:54:04;101458.68;;;16.51;53.61
83815;BME280;73829;53.826;-3.034;2023-12-20T08:56:37;101457.92;;;16.52;53.50
83815;BME280;73829;53.826;-3.034;2023-12-20T08:59:08;101451.55;;;16.54;53.65
83815;BME280;73829;53.826;-3.034;2023-12-20T09:01:39;101450.98;;;16.56;53.66
83815;BME280;73829;53.826;-3.034;2023-12-20T09:04:09;101450.06;;;16.58;53.67
83815;BME280;73829;53.826;-3.034;2023-12-20T09:06:40;101449.99;;;16.60;53.65
83815;BME280;73829;53.826;-3.034;2023-12-20T09:09:11;101448.90;;;16.61;53.58
83815;BME280;73829;53.826;-3.034;2023-12-20T09:11:43;101456.73;;;16.64;53.53
83815;BME280;73829;53.826;-3.034;2023-12-20T09:14:15;101454.58;;;16.66;53.60
83815;BME280;73829;53.826;-3.034;2023-12-20T09:16:46;101448.71;;;16.68;53.74
83815;BME280;73829;53.826;-3.034;2023-12-20T09:19:17;101447.60;;;16.71;53.65
83815;BME280;73829;53.826;-3.034;2023-12-20T09:21:48;101452.82;;;16.73;53.61
83815;BME280;73829;53.826;-3.034;2023-12-20T09:24:17;101452.44;;;16.74;53.78
83815;BME280;73829;53.826;-3.034;2023-12-20T09:26:48;101452.91;;;16.77;53.90
83815;BME280;73829;53.826;-3.034;2023-12-20T09:29:17;101449.73;;;16.77;53.78
83815;BME280;73829;53.826;-3.034;2023-12-20T09:31:48;101445.99;;;16.79;53.76
83815;BME280;73829;53.826;-3.034;2023-12-20T09:34:17;101447.23;;;16.80;53.89
83815;BME280;73829;53.826;-3.034;2023-12-20T09:36:48;101443.45;;;16.82;54.04
83815;BME280;73829;53.826;-3.034;2023-12-20T09:39:18;101439.10;;;16.80;53.83
83815;BME280;73829;53.826;-3.034;2023-12-20T09:41:59;101447.11;;;16.83;53.92
83815;BME280;73829;53.826;-3.034;2023-12-20T09:44:31;101454.50;;;16.83;53.90
83815;BME280;73829;53.826;-3.034;2023-12-20T09:47:05;101447.63;;;16.83;54.07
83815;BME280;73829;53.826;-3.034;2023-12-20T09:49:38;101436.38;;;16.83;53.95
83815;BME280;73829;53.826;-3.034;2023-12-20T09:52:09;101426.72;;;16.83;53.98
83815;BME280;73829;53.826;-3.034;2023-12-20T09:54:41;101425.28;;;16.84;53.98
83815;BME280;73829;53.826;-3.034;2023-12-20T09:57:12;101424.95;;;16.83;53.94
83815;BME280;73829;53.826;-3.034;2023-12-20T09:59:41;101419.13;;;16.84;54.06
83815;BME280;73829;53.826;-3.034;2023-12-20T10:02:14;101414.54;;;16.85;53.93
83815;BME280;73829;53.826;-3.034;2023-12-20T10:04:49;101415.77;;;16.85;53.98
83815;BME280;73829;53.826;-3.034;2023-12-20T10:07:20;101414.54;;;16.85;54.04
83815;BME280;73829;53.826;-3.034;2023-12-20T10:09:51;101422.80;;;16.85;53.88
83815;BME280;73829;53.826;-3.034;2023-12-20T10:12:24;101425.23;;;16.86;53.88
83815;BME280;73829;53.826;-3.034;2023-12-20T10:14:56;101422.20;;;16.87;53.85
83815;BME280;73829;53.826;-3.034;2023-12-20T10:17:28;101417.95;;;16.89;53.78
83815;BME280;73829;53.826;-3.034;2023-12-20T10:19:59;101416.88;;;16.89;53.88
83815;BME280;73829;53.826;-3.034;2023-12-20T10:22:31;101412.98;;;16.91;53.82
83815;BME280;73829;53.826;-3.034;2023-12-20T10:25:02;101408.89;;;16.92;53.88
83815;BME280;73829;53.826;-3.034;2023-12-20T10:27:33;101410.11;;;16.93;53.90
83815;BME280;73829;53.826;-3.034;2023-12-20T10:30:03;101406.89;;;16.94;54.00
83815;BME280;73829;53.826;-3.034;2023-12-20T10:32:35;101409.31;;;16.96;53.86
83815;BME280;73829;53.826;-3.034;2023-12-20T10:35:07;101410.20;;;16.96;53.93
83815;BME280;73829;53.826;-3.034;2023-12-20T10:37:39;101411.77;;;16.96;53.90
83815;BME280;73829;53.826;-3.034;2023-12-20T10:40:11;101408.08;;;16.96;53.88
83815;BME280;73829;53.826;-3.034;2023-12-20T10:42:43;101395.77;;;16.96;53.84
83815;BME280;73829;53.826;-3.034;2023-12-20T10:45:15;101390.67;;;16.97;53.97
83815;BME280;73829;53.826;-3.034;2023-12-20T10:47:47;101393.44;;;16.98;53.88
83815;BME280;73829;53.826;-3.034;2023-12-20T10:50:20;101387.58;;;16.99;53.89
83815;BME280;73829;53.826;-3.034;2023-12-20T10:52:52;101381.53;;;17.02;53.72
83815;BME280;73829;53.826;-3.034;2023-12-20T10:55:25;101376.05;;;17.03;53.97
83815;BME280;73829;53.826;-3.034;2023-12-20T10:58:02;101375.46;;;17.05;53.86
83815;BME280;73829;53.826;-3.034;2023-12-20T11:00:39;101356.92;;;17.07;53.77
83815;BME280;73829;53.826;-3.034;2023-12-20T11:03:11;101349.31;;;17.09;53.62
83815;BME280;73829;53.826;-3.034;2023-12-20T11:05:46;101344.52;;;17.10;53.64
83815;BME280;73829;53.826;-3.034;2023-12-20T11:08:22;101339.76;;;17.11;53.96
83815;BME280;73829;53.826;-3.034;2023-12-20T11:11:06;101334.80;;;17.12;53.72
83815;BME280;73829;53.826;-3.034;2023-12-20T11:13:48;101327.61;;;17.12;53.85
83815;BME280;73829;53.826;-3.034;2023-12-20T11:16:24;101310.73;;;17.12;53.67
83815;BME280;73829;53.826;-3.034;2023-12-20T11:18:55;101309.49;;;17.12;53.70
83815;BME280;73829;53.826;-3.034;2023-12-20T11:21:26;101307.56;;;17.12;53.90
83815;BME280;73829;53.826;-3.034;2023-12-20T11:24:00;101305.28;;;17.12;53.66
83815;BME280;73829;53.826;-3.034;2023-12-20T11:26:32;101306.89;;;17.11;53.67
83815;BME280;73829;53.826;-3.034;2023-12-20T11:29:32;101298.46;;;17.11;53.61
83815;BME280;73829;53.826;-3.034;2023-12-20T11:32:29;101293.20;;;17.11;53.83
83815;BME280;73829;53.826;-3.034;2023-12-20T11:35:16;101291.59;;;17.11;54.03
83815;BME280;73829;53.826;-3.034;2023-12-20T11:37:47;101287.40;;;17.10;53.90
83815;BME280;73829;53.826;-3.034;2023-12-20T11:40:19;101280.92;;;17.09;53.95
83815;BME280;73829;53.826;-3.034;2023-12-20T11:42:52;101277.06;;;17.09;53.89
83815;BME280;73829;53.826;-3.034;2023-12-20T11:45:25;101269.02;;;17.08;53.92
83815;BME280;73829;53.826;-3.034;2023-12-20T11:47:58;101271.81;;;17.08;53.93
83815;BME280;73829;53.826;-3.034;2023-12-20T11:50:29;101264.61;;;17.08;53.89
83815;BME280;73829;53.826;-3.034;2023-12-20T11:53:00;101271.81;;;17.08;54.06
83815;BME280;73829;53.826;-3.034;2023-12-20T11:55:31;101263.20;;;17.08;53.89
83815;BME280;73829;53.826;-3.034;2023-12-20T11:58:06;101261.42;;;17.09;53.91
83815;BME280;73829;53.826;-3.034;2023-12-20T12:00:39;101264.40;;;17.09;53.72
83815;BME280;73829;53.826;-3.034;2023-12-20T12:03:13;101261.91;;;17.10;53.85
83815;BME280;73829;53.826;-3.034;2023-12-20T12:05:48;101256.08;;;17.11;53.83
83815;BME280;73829;53.826;-3.034;2023-12-20T12:12:20;101257.41;;;17.19;53.89
83815;BME280;73829;53.826;-3.034;2023-12-20T12:14:51;101239.80;;;17.20;53.89
83815;BME280;73829;53.826;-3.034;2023-12-20T12:17:22;101232.70;;;17.22;53.82
83815;BME280;73829;53.826;-3.034;2023-12-20T12:20:04;101215.73;;;17.25;53.83
83815;BME280;73829;53.826;-3.034;2023-12-20T12:22:35;101197.89;;;17.27;53.72
83815;BME280;73829;53.826;-3.034;2023-12-20T12:25:11;101198.73;;;17.28;53.71
83815;BME280;73829;53.826;-3.034;2023-12-20T12:27:43;101203.89;;;17.32;53.70
83815;BME280;73829;53.826;-3.034;2023-12-20T12:30:15;101190.48;;;17.32;53.80
83815;BME280;73829;53.826;-3.034;2023-12-20T12:32:47;101187.45;;;17.34;53.78
83815;BME280;73829;53.826;-3.034;2023-12-20T12:35:19;101194.26;;;17.35;53.83
83815;BME280;73829;53.826;-3.034;2023-12-20T12:37:50;101195.97;;;17.37;53.73
83815;BME280;73829;53.826;-3.034;2023-12-20T12:40:21;101194.17;;;17.38;53.83
83815;BME280;73829;53.826;-3.034;2023-12-20T12:42:52;101185.52;;;17.39;53.85
83815;BME280;73829;53.826;-3.034;2023-12-20T12:45:21;101178.95;;;17.41;53.75
83815;BME280;73829;53.826;-3.034;2023-12-20T12:47:54;101170.98;;;17.42;53.73
83815;BME280;73829;53.826;-3.034;2023-12-20T12:50:25;101166.41;;;17.42;53.69
83815;BME280;73829;53.826;-3.034;2023-12-20T12:52:58;101165.70;;;17.43;53.72
83815;BME280;73829;53.826;-3.034;2023-12-20T12:55:27;101161.98;;;17.43;53.83
83815;BME280;73829;53.826;-3.034;2023-12-20T12:57:58;101155.24;;;17.45;53.69
83815;BME280;73829;53.826;-3.034;2023-12-20T13:00:28;101158.26;;;17.44;53.74
83815;BME280;73829;53.826;-3.034;2023-12-20T13:02:58;101161.77;;;17.44;53.61
83815;BME280;73829;53.826;-3.034;2023-12-20T13:05:29;101157.13;;;17.46;53.71